createdAt,value
2023-04-04T00:00:55.833Z,1.50
2023-04-04T00:03:23.707Z,1.45
2023-04-04T00:05:51.822Z,1.80
2023-04-04T00:08:19.338Z,1.67
2023-04-04T00:10:47.059Z,1.65
2023-04-04T00:13:14.888Z,1.50
2023-04-04T00:15:42.551Z,1.65
2023-04-04T00:18:10.651Z,1.58
2023-04-04T00:20:38.447Z,1.33
2023-04-04T00:23:06.123Z,1.45
2023-04-04T00:25:33.866Z,1.60
2023-04-04T00:28:01.577Z,1.50
2023-04-04T00:30:30.044Z,1.35
2023-04-04T00:32:58.263Z,1.48
2023-04-04T00:35:25.981Z,1.67
2023-04-04T00:37:53.572Z,1.80
2023-04-04T00:40:21.311Z,2.10
2023-04-04T00:42:48.807Z,1.70
2023-04-04T00:45:16.396Z,1.77
2023-04-04T00:47:44.397Z,1.40
2023-04-04T00:50:12.163Z,1.95
2023-04-04T00:52:39.710Z,2.25
2023-04-04T00:55:07.726Z,1.73
2023-04-04T00:57:35.355Z,1.60
2023-04-04T01:00:05.353Z,1.60
2023-04-04T01:02:33.391Z,1.77
2023-04-04T01:05:00.828Z,1.87
2023-04-04T01:07:28.755Z,1.85
2023-04-04T01:09:57.813Z,1.60
2023-04-04T01:12:25.758Z,1.95
2023-04-04T01:14:53.191Z,1.67
2023-04-04T01:17:21.484Z,2.10
2023-04-04T01:20:03.423Z,1.48
2023-04-04T01:22:33.906Z,1.95
2023-04-04T01:25:02.900Z,1.48
2023-04-04T01:27:31.417Z,1.85
2023-04-04T01:29:59.692Z,1.73
2023-04-04T01:33:01.301Z,1.77
2023-04-04T01:35:36.099Z,1.60
2023-04-04T01:38:06.339Z,2.05
2023-04-04T01:40:35.557Z,1.50
2023-04-04T01:43:03.959Z,1.87
2023-04-04T01:45:32.888Z,1.80
2023-04-04T01:48:01.270Z,2.20
2023-04-04T01:50:29.820Z,1.60
2023-04-04T01:52:57.318Z,1.67
2023-04-04T01:55:25.029Z,1.73
2023-04-04T01:57:52.519Z,1.92
2023-04-04T02:00:20.074Z,1.62
2023-04-04T02:02:47.395Z,1.83
2023-04-04T02:05:15.519Z,1.45
2023-04-04T02:07:47.445Z,1.92
2023-04-04T02:10:16.541Z,1.58
2023-04-04T02:12:45.524Z,1.73
2023-04-04T02:15:13.138Z,1.92
2023-04-04T02:17:41.417Z,1.85
2023-04-04T02:20:10.592Z,1.60
2023-04-04T02:22:39.272Z,1.52
2023-04-04T02:25:06.940Z,1.87
2023-04-04T02:27:34.488Z,1.55
2023-04-04T02:30:02.302Z,1.50
2023-04-04T02:32:30.267Z,1.37
2023-04-04T02:34:57.741Z,1.80
2023-04-04T02:37:25.866Z,1.80
2023-04-04T02:39:54.105Z,1.73
2023-04-04T02:42:21.834Z,1.58
2023-04-04T02:44:50.346Z,1.58
2023-04-04T02:47:17.980Z,1.80
2023-04-04T02:49:45.604Z,1.70
2023-04-04T02:52:14.059Z,1.95
2023-04-04T02:54:43.013Z,1.50
2023-04-04T02:57:11.328Z,1.95
2023-04-04T02:59:39.268Z,1.62
2023-04-04T03:02:06.813Z,1.58
2023-04-04T03:04:36.574Z,1.83
2023-04-04T03:07:04.278Z,1.92
2023-04-04T03:09:31.814Z,1.62
2023-04-04T03:12:00.612Z,1.75
2023-04-04T03:14:29.954Z,1.48
2023-04-04T03:16:57.520Z,1.30
2023-04-04T03:19:25.063Z,1.75
2023-04-04T03:21:53.398Z,1.77
2023-04-04T03:24:20.844Z,1.50
2023-04-04T03:26:48.295Z,1.80
2023-04-04T03:29:16.376Z,1.70
2023-04-04T03:31:44.121Z,1.90
2023-04-04T03:34:11.802Z,1.83
2023-04-04T03:36:39.613Z,1.70
2023-04-04T03:39:07.183Z,1.60
2023-04-04T03:41:36.408Z,2.50
2023-04-04T03:44:04.932Z,1.95
2023-04-04T03:46:33.558Z,2.10
2023-04-04T03:49:02.266Z,2.20
2023-04-04T03:51:29.988Z,2.72
2023-04-04T03:53:57.614Z,2.00
2023-04-04T03:56:25.061Z,2.12
2023-04-04T03:58:55.940Z,2.53
2023-04-04T04:01:23.814Z,2.10
2023-04-04T04:03:51.505Z,2.95
2023-04-04T04:06:19.294Z,2.65
2023-04-04T04:08:46.765Z,4.03
2023-04-04T04:11:14.452Z,4.32
2023-04-04T04:13:42.104Z,4.62
2023-04-04T04:16:09.654Z,3.72
2023-04-04T04:18:37.480Z,2.90
2023-04-04T04:21:05.318Z,2.78
2023-04-04T04:23:33.052Z,2.33
2023-04-04T04:26:00.949Z,2.25
2023-04-04T04:28:33.628Z,2.40
2023-04-04T04:31:07.425Z,2.20
2023-04-04T04:33:37.193Z,2.60
2023-04-04T04:36:05.861Z,2.05
2023-04-04T04:38:34.479Z,2.15
2023-04-04T04:41:02.894Z,2.20
2023-04-04T04:43:31.212Z,2.15
2023-04-04T04:45:58.946Z,2.20
2023-04-04T04:48:27.077Z,3.05
2023-04-04T04:50:55.057Z,2.55
2023-04-04T04:53:23.126Z,3.03
2023-04-04T04:55:52.355Z,2.40
2023-04-04T04:58:25.451Z,2.87
2023-04-04T05:00:59.769Z,2.90
2023-04-04T05:03:29.847Z,3.00
2023-04-04T05:05:58.477Z,2.83
2023-04-04T05:08:25.986Z,2.78
2023-04-04T05:10:55.161Z,3.25
2023-04-04T05:13:23.803Z,2.95
2023-04-04T05:15:51.348Z,3.22
2023-04-04T05:18:19.969Z,3.08
2023-04-04T05:20:52.800Z,3.50
2023-04-04T05:23:21.405Z,3.20
2023-04-04T05:25:53.309Z,3.37
2023-04-04T05:28:21.604Z,3.30
2023-04-04T05:30:49.318Z,3.20
2023-04-04T05:33:17.153Z,3.03
2023-04-04T05:35:45.771Z,2.90
2023-04-04T05:38:14.598Z,2.95
2023-04-04T05:40:45.371Z,3.20
2023-04-04T05:43:13.393Z,2.42
2023-04-04T05:45:42.879Z,2.85
2023-04-04T05:48:10.832Z,2.92
2023-04-04T05:50:39.418Z,3.87
2023-04-04T05:53:07.106Z,4.78
2023-04-04T05:55:34.533Z,3.00
2023-04-04T05:58:02.290Z,2.90
2023-04-04T06:00:31.472Z,3.15
2023-04-04T06:02:59.785Z,2.37
2023-04-04T06:05:27.313Z,2.35
2023-04-04T06:07:54.790Z,2.60
2023-04-04T06:10:22.642Z,2.60
2023-04-04T06:12:51.497Z,2.50
2023-04-04T06:15:18.942Z,2.05
2023-04-04T06:17:46.776Z,2.40
2023-04-04T06:20:14.620Z,2.53
2023-04-04T06:22:42.341Z,2.37
2023-04-04T06:25:10.909Z,2.80
2023-04-04T06:27:38.855Z,2.58
2023-04-04T06:30:09.010Z,2.75
2023-04-04T06:32:38.705Z,2.80
2023-04-04T06:35:07.401Z,2.78
2023-04-04T06:37:36.252Z,5.43
2023-04-04T06:40:05.192Z,5.75
2023-04-04T06:42:33.262Z,4.25
2023-04-04T06:45:02.653Z,1.30
2023-04-04T06:47:32.309Z,1.50
2023-04-04T06:50:02.250Z,1.42
2023-04-04T06:52:30.161Z,1.42
2023-04-04T06:54:57.942Z,1.40
2023-04-04T06:57:25.743Z,1.35
2023-04-04T06:59:53.982Z,1.62
2023-04-04T07:02:21.478Z,1.80
2023-04-04T07:04:48.908Z,1.27
2023-04-04T07:07:16.823Z,1.92
2023-04-04T07:09:44.234Z,1.37
2023-04-04T07:12:11.954Z,1.52
2023-04-04T07:14:39.598Z,1.58
2023-04-04T07:17:17.162Z,1.58
2023-04-04T07:19:51.700Z,1.45
2023-04-04T07:22:19.359Z,1.58
2023-04-04T07:24:48.194Z,1.35
2023-04-04T07:27:15.979Z,1.52
2023-04-04T07:29:43.381Z,1.60
2023-04-04T07:32:10.977Z,1.50
2023-04-04T07:34:38.700Z,1.50
2023-04-04T07:37:06.135Z,1.37
2023-04-04T07:39:33.537Z,1.40
2023-04-04T07:42:01.415Z,1.58
2023-04-04T07:44:28.813Z,1.42
2023-04-04T07:47:08.729Z,1.73
2023-04-04T07:49:38.288Z,1.95
2023-04-04T07:52:06.345Z,1.35
2023-04-04T07:54:34.029Z,1.75
2023-04-04T07:57:02.059Z,1.60
2023-04-04T07:59:29.431Z,1.90
2023-04-04T08:01:56.931Z,1.80
2023-04-04T08:04:24.643Z,1.87
2023-04-04T08:06:53.106Z,1.85
2023-04-04T08:09:20.512Z,7.47
2023-04-04T08:11:48.262Z,3.00
2023-04-04T08:14:15.665Z,2.20
2023-04-04T08:16:43.076Z,2.55
2023-04-04T08:19:10.734Z,2.08
2023-04-04T08:21:38.103Z,1.70
2023-04-04T08:24:06.309Z,1.60
2023-04-04T08:26:33.989Z,2.00
2023-04-04T08:29:02.070Z,2.05
2023-04-04T08:31:30.095Z,2.05
2023-04-04T08:33:57.926Z,2.17
2023-04-04T08:36:25.319Z,1.70
2023-04-04T08:38:52.808Z,1.90
2023-04-04T08:41:21.095Z,2.15
2023-04-04T08:43:54.650Z,2.20
2023-04-04T08:46:25.946Z,2.17
2023-04-04T08:48:54.461Z,1.73
2023-04-04T08:51:22.754Z,1.95
2023-04-04T08:53:51.266Z,2.08
2023-04-04T08:56:18.632Z,1.98
2023-04-04T08:58:46.515Z,3.03
2023-04-04T09:01:14.081Z,1.80
2023-04-04T09:03:42.027Z,1.80
2023-04-04T09:06:09.801Z,1.62
2023-04-04T09:08:37.364Z,1.73
2023-04-04T09:11:05.997Z,1.60
2023-04-04T09:13:33.720Z,1.40
2023-04-04T09:16:01.210Z,1.62
2023-04-04T09:18:28.917Z,1.52
2023-04-04T09:20:56.626Z,1.30
2023-04-04T09:23:24.948Z,1.52
2023-04-04T09:26:03.941Z,1.50
2023-04-04T09:28:34.427Z,1.50
2023-04-04T09:31:04.764Z,1.55
2023-04-04T09:33:33.551Z,1.80
2023-04-04T09:36:11.630Z,1.70
2023-04-04T09:38:40.655Z,1.87
2023-04-04T09:41:10.946Z,1.55
2023-04-04T09:43:39.800Z,1.55
2023-04-04T09:46:08.044Z,1.60
2023-04-04T09:48:37.067Z,1.75
2023-04-04T09:51:06.760Z,1.98
2023-04-04T09:53:35.991Z,1.90
2023-04-04T09:56:03.625Z,2.00
2023-04-04T09:58:37.279Z,2.10
2023-04-04T10:01:09.934Z,1.52
2023-04-04T10:03:40.775Z,1.70
2023-04-04T10:06:10.157Z,1.92
2023-04-04T10:08:41.662Z,2.53
2023-04-04T10:11:11.517Z,2.30
2023-04-04T10:13:41.787Z,1.73
2023-04-04T10:16:10.766Z,1.87
2023-04-04T10:18:39.247Z,1.60
2023-04-04T10:23:40.638Z,1.67
2023-04-04T10:26:08.282Z,1.50
2023-04-04T10:28:35.691Z,2.72
2023-04-04T10:31:25.590Z,1.90
2023-04-04T10:34:14.882Z,1.50
2023-04-04T10:36:45.946Z,1.60
2023-04-04T10:39:33.509Z,1.60
2023-04-04T10:42:01.552Z,1.60
2023-04-04T10:44:34.104Z,1.92
2023-04-04T10:47:16.484Z,1.67
2023-04-04T10:52:14.202Z,1.73
2023-04-04T10:54:42.335Z,1.40
2023-04-04T10:57:10.664Z,1.80
2023-04-04T11:00:02.313Z,1.75
2023-04-04T11:02:53.030Z,1.55
2023-04-04T11:05:28.105Z,1.98
2023-04-04T11:08:09.831Z,1.60
2023-04-04T11:10:44.852Z,1.40
2023-04-04T11:13:16.323Z,2.10
2023-04-04T11:15:55.888Z,1.77
2023-04-04T11:18:43.937Z,1.90
2023-04-04T11:21:19.914Z,2.00
2023-04-04T11:23:47.644Z,1.80
2023-04-04T11:26:30.275Z,1.90
2023-04-04T11:28:59.393Z,2.05
2023-04-04T11:31:29.622Z,1.95
2023-04-04T11:34:05.866Z,2.03
2023-04-04T11:36:39.900Z,2.10
2023-04-04T11:39:22.815Z,2.03
2023-04-04T11:41:53.402Z,2.28
2023-04-04T11:44:22.602Z,2.10
2023-04-04T11:47:09.978Z,2.15
2023-04-04T11:49:42.365Z,2.12
2023-04-04T11:52:12.418Z,2.40
2023-04-04T11:54:41.865Z,2.03
2023-04-04T11:57:13.638Z,2.00
2023-04-04T11:59:43.020Z,4.05
2023-04-04T12:02:10.769Z,2.10
2023-04-04T12:04:44.537Z,2.75
2023-04-04T12:07:12.737Z,2.15
2023-04-04T12:09:40.689Z,2.03
2023-04-04T12:12:08.672Z,2.95
2023-04-04T12:14:36.079Z,3.05
2023-04-04T12:17:03.829Z,2.50
2023-04-04T12:19:31.830Z,3.05
2023-04-04T12:21:59.302Z,2.05
2023-04-04T12:24:27.067Z,1.80
2023-04-04T12:26:54.837Z,1.83
2023-04-04T12:29:22.955Z,1.85
2023-04-04T12:31:51.991Z,1.98
2023-04-04T12:34:25.847Z,1.92
2023-04-04T12:36:55.568Z,1.65
2023-04-04T12:39:25.919Z,2.03
2023-04-04T12:41:54.879Z,1.70
2023-04-04T12:44:27.338Z,1.75
2023-04-04T12:47:00.435Z,2.10
2023-04-04T12:49:30.328Z,1.80
2023-04-04T12:52:03.815Z,1.90
2023-04-04T12:54:33.264Z,1.92
2023-04-04T12:57:04.113Z,1.27
2023-04-04T12:59:33.227Z,2.15
2023-04-04T13:02:07.190Z,1.70
2023-04-04T13:04:34.835Z,1.60
2023-04-04T13:07:03.212Z,1.75
2023-04-04T13:09:30.838Z,1.70
2023-04-04T13:12:02.187Z,1.50
2023-04-04T13:15:02.062Z,1.80
2023-04-04T13:17:46.602Z,1.85
2023-04-04T13:20:15.780Z,1.70
2023-04-04T13:22:43.355Z,1.55
2023-04-04T13:25:11.446Z,1.75
2023-04-04T13:27:39.151Z,1.85
2023-04-04T13:30:10.062Z,1.70
2023-04-04T13:32:39.232Z,2.08
2023-04-04T13:35:06.941Z,2.05
2023-04-04T13:37:34.381Z,1.90
2023-04-04T13:40:02.025Z,1.67
2023-04-04T13:42:31.626Z,2.00
2023-04-04T13:44:59.264Z,1.75
2023-04-04T13:47:27.672Z,1.42
2023-04-04T13:49:55.537Z,1.80
2023-04-04T13:52:23.716Z,1.67
2023-04-04T13:54:51.559Z,2.35
2023-04-04T13:57:18.963Z,2.00
2023-04-04T13:59:46.560Z,1.80
2023-04-04T14:02:14.508Z,1.67
2023-04-04T14:04:42.182Z,1.75
2023-04-04T14:07:09.963Z,1.50
2023-04-04T14:09:37.732Z,2.15
2023-04-04T14:12:05.491Z,2.10
2023-04-04T14:14:35.603Z,1.87
2023-04-04T14:17:04.189Z,1.85
2023-04-04T14:19:31.834Z,2.60
2023-04-04T14:21:59.241Z,1.45
2023-04-04T14:24:26.832Z,1.60
2023-04-04T14:26:54.555Z,1.65
2023-04-04T14:29:21.970Z,2.45
2023-04-04T14:31:49.446Z,3.47
2023-04-04T14:34:17.189Z,2.53
2023-04-04T14:36:44.884Z,1.87
2023-04-04T14:39:12.936Z,1.70
2023-04-04T14:41:40.799Z,1.70
2023-04-04T14:44:08.578Z,1.95
2023-04-04T14:46:36.037Z,1.65
2023-04-04T14:49:06.181Z,1.83
2023-04-04T14:51:34.136Z,1.92
2023-04-04T14:54:01.582Z,1.77
2023-04-04T14:56:29.333Z,1.83
2023-04-04T14:58:57.134Z,1.60
2023-04-04T15:01:24.681Z,1.83
2023-04-04T15:03:54.053Z,1.48
2023-04-04T15:06:21.790Z,1.70
2023-04-04T15:08:49.667Z,2.80
2023-04-04T15:11:17.415Z,1.87
2023-04-04T15:13:45.051Z,1.80
2023-04-04T15:16:12.533Z,2.40
2023-04-04T15:18:40.350Z,1.90
2023-04-04T15:21:07.801Z,1.90
2023-04-04T15:23:35.306Z,1.98
2023-04-04T15:26:03.643Z,2.10
2023-04-04T15:28:31.020Z,1.55
2023-04-04T15:31:01.174Z,1.87
2023-04-04T15:33:28.884Z,1.55
2023-04-04T15:35:56.242Z,1.58
2023-04-04T15:38:23.700Z,2.28
2023-04-04T15:40:51.410Z,1.80
2023-04-04T15:43:18.840Z,1.75
2023-04-04T15:45:47.287Z,1.85
2023-04-04T15:48:15.492Z,1.90
2023-04-04T15:50:43.206Z,8.38
2023-04-04T15:53:10.918Z,3.20
2023-04-04T15:55:38.937Z,3.12
2023-04-04T15:58:06.819Z,2.50
2023-04-04T16:00:34.365Z,3.28
2023-04-04T16:03:02.195Z,3.20
2023-04-04T16:05:29.760Z,1.60
2023-04-04T16:07:57.158Z,2.17
2023-04-04T16:10:24.830Z,2.20
2023-04-04T16:12:52.278Z,1.73
2023-04-04T16:15:19.819Z,2.47
2023-04-04T16:17:47.589Z,3.30
2023-04-04T16:20:15.042Z,3.90
2023-04-04T16:22:42.430Z,3.90
2023-04-04T16:25:10.308Z,6.85
2023-04-04T16:27:37.704Z,6.85
2023-04-04T16:30:06.091Z,4.97
2023-04-04T16:32:34.346Z,10.40
2023-04-04T16:35:01.802Z,5.85
2023-04-04T16:37:29.257Z,4.12
2023-04-04T16:40:00.191Z,3.20
2023-04-04T16:42:27.845Z,3.45
2023-04-04T16:44:55.411Z,2.58
2023-04-04T16:47:23.099Z,2.33
2023-04-04T16:49:51.209Z,2.00
2023-04-04T16:52:18.760Z,2.10
2023-04-04T16:54:46.438Z,2.05
2023-04-04T16:57:13.831Z,2.35
2023-04-04T16:59:41.326Z,2.45
2023-04-04T17:02:09.291Z,2.45
2023-04-04T17:04:41.113Z,2.80
2023-04-04T17:07:09.393Z,2.72
2023-04-04T17:09:37.116Z,2.78
2023-04-04T17:12:08.194Z,2.53
2023-04-04T17:14:36.827Z,2.33
2023-04-04T17:17:05.431Z,2.30
2023-04-04T17:19:35.006Z,2.80
2023-04-04T17:22:03.246Z,2.78
2023-04-04T17:24:30.872Z,2.55
2023-04-04T17:27:00.741Z,2.75
2023-04-04T17:29:28.878Z,2.70
2023-04-04T17:31:57.102Z,2.60
2023-04-04T17:34:25.365Z,2.80
2023-04-04T17:36:53.352Z,2.42
2023-04-04T17:39:20.819Z,2.78
2023-04-04T17:41:48.231Z,2.90
2023-04-04T17:44:16.953Z,2.08
2023-04-04T17:46:45.126Z,2.40
2023-04-04T17:49:13.081Z,2.72
2023-04-04T17:51:41.063Z,2.62
2023-04-04T17:54:09.095Z,2.97
2023-04-04T17:56:37.245Z,2.83
2023-04-04T17:59:05.097Z,2.78
2023-04-04T18:01:32.693Z,2.90
2023-04-04T18:04:00.480Z,2.40
2023-04-04T18:06:28.131Z,3.58
2023-04-04T18:08:55.883Z,4.43
2023-04-04T18:11:23.993Z,5.62
2023-04-04T18:13:51.415Z,4.70
2023-04-04T18:16:18.885Z,3.42
2023-04-04T18:18:46.639Z,4.03
2023-04-04T18:21:14.002Z,3.92
2023-04-04T18:23:41.621Z,3.90
2023-04-04T18:26:09.406Z,3.67
2023-04-04T18:28:36.867Z,3.12
2023-04-04T18:31:04.341Z,3.53
2023-04-04T18:33:32.055Z,2.80
2023-04-04T18:36:00.359Z,2.75
2023-04-04T18:38:28.075Z,2.87
2023-04-04T18:40:56.566Z,2.55
2023-04-04T18:43:24.599Z,2.12
2023-04-04T18:45:53.566Z,2.60
2023-04-04T18:48:24.968Z,2.33
2023-04-04T18:50:52.350Z,2.53
2023-04-04T18:53:19.823Z,2.70
2023-04-04T18:55:49.208Z,3.55
2023-04-04T18:58:16.614Z,3.03
2023-04-04T19:00:44.537Z,2.78
2023-04-04T19:03:13.362Z,2.83
2023-04-04T19:05:41.344Z,3.20
2023-04-04T19:08:09.017Z,2.62
2023-04-04T19:10:36.701Z,2.70
2023-04-04T19:13:04.173Z,2.60
2023-04-04T19:15:31.891Z,2.50
2023-04-04T19:17:59.576Z,2.72
2023-04-04T19:20:27.308Z,2.28
2023-04-04T19:22:54.703Z,2.60
2023-04-04T19:25:22.448Z,2.30
2023-04-04T19:27:49.889Z,2.30
2023-04-04T19:30:43.925Z,2.62
2023-04-04T19:33:13.737Z,2.12
2023-04-04T19:35:55.615Z,2.92
2023-04-04T19:38:34.382Z,2.90
2023-04-04T19:41:13.034Z,2.33
2023-04-04T19:43:45.594Z,2.12
2023-04-04T19:46:15.164Z,2.22
2023-04-04T19:48:43.769Z,2.58
2023-04-04T19:51:17.341Z,2.30
2023-04-04T19:53:52.314Z,2.22
2023-04-04T19:56:23.051Z,2.05
2023-04-04T19:59:02.159Z,2.30
2023-04-04T20:01:31.824Z,2.10
2023-04-04T20:04:17.645Z,2.67
2023-04-04T20:06:47.696Z,2.45
2023-04-04T20:09:37.147Z,2.60
2023-04-04T20:12:06.909Z,2.53
2023-04-04T20:14:34.646Z,2.78
2023-04-04T20:17:02.352Z,2.65
2023-04-04T20:19:29.742Z,2.83
2023-04-04T20:21:57.565Z,2.70
2023-04-04T20:24:25.247Z,2.53
2023-04-04T20:26:59.573Z,3.03
2023-04-04T20:29:34.692Z,2.30
2023-04-04T20:32:07.937Z,3.30
2023-04-04T20:34:46.605Z,2.62
2023-04-04T20:37:22.084Z,2.90
2023-04-04T20:39:57.197Z,2.70
2023-04-04T20:42:27.772Z,2.45
2023-04-04T20:45:00.909Z,2.67
2023-04-04T20:47:45.376Z,2.83
2023-04-04T20:50:16.039Z,3.10
2023-04-04T20:52:53.373Z,2.90
2023-04-04T20:55:22.735Z,3.90
2023-04-04T20:57:51.387Z,3.40
2023-04-04T21:00:28.269Z,3.12
2023-04-04T21:02:57.330Z,3.03
2023-04-04T21:05:32.478Z,2.83
2023-04-04T21:08:01.517Z,3.17
2023-04-04T21:10:28.890Z,2.78
2023-04-04T21:12:57.709Z,2.75
2023-04-04T21:15:30.625Z,2.42
2023-04-04T21:18:07.133Z,3.12
2023-04-04T21:20:46.861Z,3.03
2023-04-04T21:23:26.592Z,2.75
2023-04-04T21:25:58.486Z,3.53
2023-04-04T21:28:38.647Z,3.03
2023-04-04T21:31:14.248Z,2.62
2023-04-04T21:33:43.202Z,2.85
2023-04-04T21:36:24.752Z,2.62
2023-04-04T21:38:53.217Z,3.05
2023-04-04T21:41:31.000Z,2.70
2023-04-04T21:44:00.756Z,2.83
2023-04-04T21:46:31.822Z,2.65
2023-04-04T21:48:59.686Z,2.75
2023-04-04T21:51:27.626Z,2.83
2023-04-04T21:53:56.143Z,2.83
2023-04-04T21:56:32.733Z,2.35
2023-04-04T21:59:01.915Z,2.80
2023-04-04T22:01:30.684Z,2.78
2023-04-04T22:03:58.991Z,2.33
2023-04-04T22:06:27.384Z,3.33
2023-04-04T22:08:56.642Z,3.70
2023-04-04T22:11:26.006Z,3.80
2023-04-04T22:14:02.930Z,2.83
2023-04-04T22:16:31.338Z,3.10
2023-04-04T22:19:01.269Z,3.08
2023-04-04T22:21:29.026Z,3.40
2023-04-04T22:24:01.893Z,3.08
2023-04-04T22:26:32.332Z,2.83
2023-04-04T22:29:02.916Z,3.33
2023-04-04T22:31:34.349Z,2.42
2023-04-04T22:34:06.463Z,2.70
2023-04-04T22:36:35.263Z,3.65
2023-04-04T22:39:03.137Z,5.32
2023-04-04T22:41:30.772Z,5.75
2023-04-04T22:43:58.348Z,4.07
2023-04-04T22:46:28.830Z,4.12
2023-04-04T22:49:06.901Z,3.22
2023-04-04T22:51:43.036Z,3.60
2023-04-04T22:54:13.182Z,3.12
2023-04-04T22:56:40.925Z,2.85
2023-04-04T22:59:08.397Z,3.10
2023-04-04T23:01:36.031Z,3.30
2023-04-04T23:04:03.773Z,3.25
2023-04-04T23:06:31.507Z,3.22
2023-04-04T23:08:59.330Z,3.20
2023-04-04T23:11:27.497Z,2.67
2023-04-04T23:13:57.015Z,2.80
2023-04-04T23:16:26.301Z,2.95
2023-04-04T23:18:54.241Z,2.90
2023-04-04T23:21:22.055Z,2.87
2023-04-04T23:23:49.752Z,2.83
2023-04-04T23:26:17.438Z,2.72
2023-04-04T23:28:44.830Z,2.85
2023-04-04T23:31:12.274Z,3.08
2023-04-04T23:33:40.040Z,3.08
2023-04-04T23:36:07.980Z,2.92
2023-04-04T23:38:35.826Z,3.17
2023-04-04T23:41:03.516Z,3.30
2023-04-04T23:43:31.221Z,3.30
2023-04-04T23:46:00.292Z,3.40
2023-04-04T23:48:28.349Z,3.37
2023-04-04T23:50:56.681Z,3.30
2023-04-04T23:53:24.283Z,3.70
2023-04-04T23:55:51.997Z,3.30
2023-04-04T23:58:19.439Z,3.12
